Time,TemperatureF,DewpointF,PressureIn,WindDirection,WindDirectionDegrees,WindSpeedMPH,WindSpeedGustMPH,Humidity,HourlyPrecipIn,Conditions,Clouds,dailyrainin,SoftwareType,DateUTC
2013-03-31 00:01:00,68.5,62.1,29.89,ESE,110,0.0,0.0,80,0.00,,,0.00,Wunderground v.1.15,2013-03-31 05:01:00,
2013-03-31 00:10:00,68.3,61.9,29.89,ESE,110,0.0,0.0,80,0.00,,,0.00,Wunderground v.1.15,2013-03-31 05:10:00,
2013-03-31 00:20:00,67.9,61.9,29.89,ESE,111,0.0,0.0,81,0.00,,,0.00,Wunderground v.1.15,2013-03-31 05:20:00,
2013-03-31 00:25:00,67.8,61.8,29.88,ESE,113,0.0,0.0,81,0.00,,,0.00,Wunderground v.1.15,2013-03-31 05:25:00,
2013-03-31 00:35:00,68.1,61.7,29.88,ESE,109,1.0,1.0,80,0.00,,,0.00,Wunderground v.1.15,2013-03-31 05:35:00,
2013-03-31 00:45:00,68.1,61.3,29.88,SE,126,0.0,0.0,79,0.00,,,0.00,Wunderground v.1.15,2013-03-31 05:45:00,
2013-03-31 00:55:00,68.1,61.3,29.88,SE,126,0.0,0.0,79,0.00,,,0.00,Wunderground v.1.15,2013-03-31 05:55:00,
2013-03-31 01:01:00,68.0,61.2,29.88,SE,126,0.0,0.0,79,0.00,,,0.00,Wunderground v.1.15,2013-03-31 06:01:00,
2013-03-31 01:10:00,67.8,61.4,29.88,SE,126,0.0,0.0,80,0.00,,,0.00,Wunderground v.1.15,2013-03-31 06:10:00,
2013-03-31 01:20:00,67.7,61.3,29.88,SE,126,0.0,0.0,80,0.00,,,0.00,Wunderground v.1.15,2013-03-31 06:20:00,
2013-03-31 01:25:00,67.6,61.2,29.88,SE,126,0.0,0.0,80,0.00,,,0.00,Wunderground v.1.15,2013-03-31 06:25:00,
2013-03-31 01:35:00,67.4,61.0,29.87,SE,126,0.0,0.0,80,0.00,,,0.00,Wunderground v.1.15,2013-03-31 06:35:00,
2013-03-31 01:40:00,67.2,60.8,29.87,SE,126,0.0,0.0,80,0.00,,,0.00,Wunderground v.1.15,2013-03-31 06:40:00,
2013-03-31 01:50:00,67.2,60.8,29.87,SE,126,0.0,0.0,80,0.00,,,0.00,Wunderground v.1.15,2013-03-31 06:50:00,
2013-03-31 01:55:00,67.2,60.8,29.87,SE,126,0.0,0.0,80,0.00,,,0.00,Wunderground v.1.15,2013-03-31 06:55:00,
2013-03-31 02:00:00,67.2,60.8,29.87,SE,126,0.0,0.0,80,0.00,,,0.00,Wunderground v.1.15,2013-03-31 07:00:00,
2013-03-31 02:10:00,67.2,61.2,29.87,SE,126,0.0,0.0,81,0.00,,,0.00,Wunderground v.1.15,2013-03-31 07:10:00,
2013-03-31 02:20:00,67.3,61.3,29.88,SE,126,0.0,0.0,81,0.00,,,0.00,Wunderground v.1.15,2013-03-31 07:20:00,
2013-03-31 02:25:00,67.3,61.3,29.88,SE,126,0.0,0.0,81,0.00,,,0.00,Wunderground v.1.15,2013-03-31 07:25:00,
2013-03-31 02:30:00,67.2,61.2,29.88,SE,126,0.0,0.0,81,0.00,,,0.00,Wunderground v.1.15,2013-03-31 07:30:00,
2013-03-31 02:40:00,67.0,61.0,29.87,SE,126,0.0,0.0,81,0.00,,,0.00,Wunderground v.1.15,2013-03-31 07:40:00,
2013-03-31 02:50:00,66.8,61.1,29.87,SE,126,0.0,0.0,82,0.00,,,0.00,Wunderground v.1.15,2013-03-31 07:50:00,
2013-03-31 02:55:00,66.7,61.4,29.87,SE,126,0.0,0.0,83,0.00,,,0.00,Wunderground v.1.15,2013-03-31 07:55:00,
2013-03-31 03:00:00,66.6,61.3,29.87,SE,126,0.0,0.0,83,0.00,,,0.00,Wunderground v.1.15,2013-03-31 08:00:00,
2013-03-31 03:10:00,66.3,61.3,29.87,SE,126,0.0,0.0,84,0.00,,,0.00,Wunderground v.1.15,2013-03-31 08:10:00,
2013-03-31 03:20:00,66.2,61.6,29.86,SSE,154,0.0,0.0,85,0.00,,,0.00,Wunderground v.1.15,2013-03-31 08:20:00,
2013-03-31 03:30:00,66.0,61.4,29.86,SSE,148,0.0,0.0,85,0.00,,,0.00,Wunderground v.1.15,2013-03-31 08:30:00,
2013-03-31 03:40:00,65.9,61.6,29.86,SE,133,0.0,0.0,86,0.00,,,0.00,Wunderground v.1.15,2013-03-31 08:40:00,
2013-03-31 03:45:00,65.9,61.6,29.86,SE,133,0.0,0.0,86,0.00,,,0.00,Wunderground v.1.15,2013-03-31 08:45:00,
2013-03-31 03:55:00,65.9,61.9,29.85,SE,133,0.0,0.0,87,0.00,,,0.00,Wunderground v.1.15,2013-03-31 08:55:00,
2013-03-31 04:01:00,65.9,61.9,29.85,SE,133,0.0,0.0,87,0.00,,,0.00,Wunderground v.1.15,2013-03-31 09:01:00,
2013-03-31 04:10:00,65.8,61.8,29.85,SE,133,0.0,0.0,87,0.00,,,0.00,Wunderground v.1.15,2013-03-31 09:10:00,
2013-03-31 04:20:00,65.7,61.7,29.84,SE,133,0.0,2.0,87,0.00,,,0.00,Wunderground v.1.15,2013-03-31 09:20:00,
2013-03-31 04:25:00,65.6,61.9,29.84,ESE,123,0.0,0.0,88,0.00,,,0.00,Wunderground v.1.15,2013-03-31 09:25:00,
2013-03-31 04:35:00,65.5,61.9,29.84,SE,136,0.0,1.0,88,0.00,,,0.00,Wunderground v.1.15,2013-03-31 09:35:00,
2013-03-31 04:45:00,65.5,61.9,29.83,SE,136,0.0,3.0,88,0.00,,,0.00,Wunderground v.1.15,2013-03-31 09:45:00,
2013-03-31 04:55:00,65.4,62.1,29.83,SE,137,0.0,0.0,89,0.00,,,0.00,Wunderground v.1.15,2013-03-31 09:55:00,
2013-03-31 05:00:00,65.3,62.0,29.83,SE,136,0.0,0.0,89,0.00,,,0.00,Wunderground v.1.15,2013-03-31 10:00:00,
2013-03-31 05:10:00,65.1,61.8,29.83,SE,136,0.0,0.0,89,0.00,,,0.00,Wunderground v.1.15,2013-03-31 10:10:00,
2013-03-31 05:15:00,65.0,62.0,29.83,SE,136,0.0,0.0,90,0.00,,,0.00,Wunderground v.1.15,2013-03-31 10:15:00,
2013-03-31 05:25:00,64.9,61.9,29.83,SSE,155,0.0,0.0,90,0.00,,,0.00,Wunderground v.1.15,2013-03-31 10:25:00,
2013-03-31 05:35:00,65.0,62.3,29.83,SSE,159,0.0,0.0,91,0.00,,,0.00,Wunderground v.1.15,2013-03-31 10:35:00,
2013-03-31 05:45:00,65.3,62.6,29.83,SW,223,1.0,4.0,91,0.00,,,0.00,Wunderground v.1.15,2013-03-31 10:45:00,
2013-03-31 05:55:00,65.7,63.0,29.82,SE,140,1.0,2.0,91,0.00,,,0.00,Wunderground v.1.15,2013-03-31 10:55:00,
2013-03-31 06:00:00,65.8,63.1,29.82,SE,128,1.0,5.0,91,0.00,,,0.00,Wunderground v.1.15,2013-03-31 11:00:00,
2013-03-31 06:10:00,66.1,63.1,29.81,South,190,2.0,5.0,90,0.00,,,0.00,Wunderground v.1.15,2013-03-31 11:10:00,
2013-03-31 06:15:00,66.1,63.1,29.81,South,172,2.0,5.0,90,0.00,,,0.00,Wunderground v.1.15,2013-03-31 11:15:00,
2013-03-31 06:25:00,66.2,63.2,29.81,South,188,3.0,5.0,90,0.00,,,0.00,Wunderground v.1.15,2013-03-31 11:25:00,
2013-03-31 06:35:00,66.1,63.1,29.81,South,186,1.0,4.0,90,0.00,,,0.00,Wunderground v.1.15,2013-03-31 11:35:00,
2013-03-31 06:45:00,66.2,63.2,29.81,ESE,109,3.0,3.0,90,0.00,,,0.00,Wunderground v.1.15,2013-03-31 11:45:00,
2013-03-31 06:55:00,66.2,63.2,29.81,SSW,194,3.0,6.0,90,0.00,,,0.00,Wunderground v.1.15,2013-03-31 11:55:00,
2013-03-31 07:00:00,66.2,63.2,29.81,South,183,2.0,3.0,90,0.00,,,0.00,Wunderground v.1.15,2013-03-31 12:00:00,
2013-03-31 07:10:00,66.1,63.1,29.81,South,178,2.0,2.0,90,0.00,,,0.00,Wunderground v.1.15,2013-03-31 12:10:00,
2013-03-31 07:15:00,66.1,63.1,29.80,SSW,211,2.0,4.0,90,0.00,,,0.00,Wunderground v.1.15,2013-03-31 12:15:00,
2013-03-31 07:25:00,66.1,63.1,29.80,South,176,3.0,5.0,90,0.00,,,0.00,Wunderground v.1.15,2013-03-31 12:25:00,
2013-03-31 07:35:00,66.0,63.0,29.81,SSW,197,4.0,6.0,90,0.00,,,0.00,Wunderground v.1.15,2013-03-31 12:35:00,
2013-03-31 07:45:00,66.1,63.1,29.83,SSW,209,3.0,4.0,90,0.00,,,0.00,Wunderground v.1.15,2013-03-31 12:45:00,
2013-03-31 07:55:00,66.3,63.3,29.89,NNW,328,5.0,5.0,90,0.00,,,0.00,Wunderground v.1.15,2013-03-31 12:55:00,
2013-03-31 08:00:00,66.3,63.0,29.91,WSW,258,5.0,6.0,89,0.00,,,0.00,Wunderground v.1.15,2013-03-31 13:00:00,
2013-03-31 08:10:00,66.1,62.1,29.92,NW,304,3.0,3.0,87,0.00,,,0.00,Wunderground v.1.15,2013-03-31 13:10:00,
2013-03-31 08:15:00,66.0,62.3,29.92,NNW,336,2.0,3.0,88,0.00,,,0.00,Wunderground v.1.15,2013-03-31 13:15:00,
2013-03-31 08:25:00,65.6,61.6,29.94,NNW,335,2.0,5.0,87,0.00,,,0.00,Wunderground v.1.15,2013-03-31 13:25:00,
2013-03-31 08:35:00,64.7,60.4,29.95,North,355,2.0,5.0,86,0.00,,,0.00,Wunderground v.1.15,2013-03-31 13:35:00,
2013-03-31 08:45:00,63.2,59.3,29.93,NNE,13,1.0,1.0,87,0.00,,,0.01,Wunderground v.1.15,2013-03-31 13:45:00,
2013-03-31 08:55:00,62.5,59.2,29.94,North,11,1.0,6.0,89,0.00,,,0.01,Wunderground v.1.15,2013-03-31 13:55:00,
2013-03-31 09:00:00,62.4,59.1,29.95,NNE,17,2.0,2.0,89,0.00,,,0.01,Wunderground v.1.15,2013-03-31 14:00:00,
2013-03-31 09:10:00,62.5,59.2,29.96,NNW,346,1.0,1.0,89,0.00,,,0.01,Wunderground v.1.15,2013-03-31 14:10:00,
2013-03-31 09:20:00,63.1,59.8,29.96,NNE,32,1.0,1.0,89,0.00,,,0.01,Wunderground v.1.15,2013-03-31 14:20:00,
2013-03-31 09:30:00,63.2,58.9,29.96,North,5,1.0,2.0,86,0.00,,,0.01,Wunderground v.1.15,2013-03-31 14:30:00,
2013-03-31 09:40:00,63.8,58.9,29.96,North,5,2.0,2.0,84,0.00,,,0.01,Wunderground v.1.15,2013-03-31 14:40:00,
2013-03-31 09:45:00,63.7,58.4,29.96,NNE,13,2.0,5.0,83,0.00,,,0.01,Wunderground v.1.15,2013-03-31 14:45:00,
2013-03-31 09:55:00,63.5,57.9,29.97,NE,38,2.0,4.0,82,0.00,,,0.01,Wunderground v.1.15,2013-03-31 14:55:00,
2013-03-31 10:00:00,63.8,57.9,29.97,NNE,26,2.0,2.0,81,0.00,,,0.01,Wunderground v.1.15,2013-03-31 15:00:00,
2013-03-31 10:10:00,64.4,58.1,29.97,North,355,2.0,4.0,80,0.00,,,0.01,Wunderground v.1.15,2013-03-31 15:10:00,
2013-03-31 10:15:00,64.7,57.7,29.97,North,360,2.0,5.0,78,0.00,,,0.01,Wunderground v.1.15,2013-03-31 15:15:00,
2013-03-31 10:25:00,65.1,58.1,29.98,North,355,3.0,4.0,78,0.00,,,0.01,Wunderground v.1.15,2013-03-31 15:25:00,
2013-03-31 10:35:00,65.1,58.1,29.98,NNW,338,1.0,2.0,78,0.00,,,0.01,Wunderground v.1.15,2013-03-31 15:35:00,
2013-03-31 10:45:00,64.6,57.6,29.98,NNW,346,1.0,2.0,78,0.00,,,0.01,Wunderground v.1.15,2013-03-31 15:45:00,
2013-03-31 10:55:00,65.3,57.9,29.98,NNE,29,1.0,1.0,77,0.00,,,0.01,Wunderground v.1.15,2013-03-31 15:55:00,
2013-03-31 11:00:00,66.0,58.2,29.98,NE,53,1.0,1.0,76,0.00,,,0.01,Wunderground v.1.15,2013-03-31 16:00:00,
2013-03-31 11:10:00,66.5,58.0,29.98,NNE,21,0.0,0.0,74,0.00,,,0.01,Wunderground v.1.15,2013-03-31 16:10:00,
2013-03-31 11:15:00,66.7,57.8,29.98,ESE,104,0.0,0.0,73,0.00,,,0.01,Wunderground v.1.15,2013-03-31 16:15:00,
2013-03-31 11:25:00,66.9,58.3,29.98,SE,129,1.0,1.0,74,0.00,,,0.01,Wunderground v.1.15,2013-03-31 16:25:00,
2013-03-31 11:35:00,67.8,58.4,29.98,ESE,121,1.0,1.0,72,0.00,,,0.01,Wunderground v.1.15,2013-03-31 16:35:00,
2013-03-31 11:40:00,68.7,58.5,29.97,SSE,150,1.0,4.0,70,0.00,,,0.01,Wunderground v.1.15,2013-03-31 16:40:00,
2013-03-31 11:45:00,69.1,58.5,29.97,ENE,78,1.0,4.0,69,0.00,,,0.01,Wunderground v.1.15,2013-03-31 16:45:00,
2013-03-31 11:55:00,69.8,58.8,29.98,North,9,1.0,1.0,68,0.00,,,0.01,Wunderground v.1.15,2013-03-31 16:55:00,
2013-03-31 12:00:00,69.9,58.4,29.99,NNE,28,1.0,1.0,67,0.00,,,0.01,Wunderground v.1.15,2013-03-31 17:00:00,
2013-03-31 12:10:00,69.7,58.7,29.98,North,360,1.0,4.0,68,0.00,,,0.01,Wunderground v.1.15,2013-03-31 17:10:00,
2013-03-31 12:20:00,69.9,58.0,29.99,NW,317,1.0,1.0,66,0.00,,,0.01,Wunderground v.1.15,2013-03-31 17:20:00,
2013-03-31 12:30:00,69.5,58.5,29.99,North,355,1.0,1.0,68,0.00,,,0.01,Wunderground v.1.15,2013-03-31 17:30:00,
2013-03-31 12:40:00,69.1,58.1,29.99,North,10,1.0,1.0,68,0.00,,,0.01,Wunderground v.1.15,2013-03-31 17:40:00,
2013-03-31 12:50:00,68.7,57.7,29.99,North,9,1.0,2.0,68,0.00,,,0.01,Wunderground v.1.15,2013-03-31 17:50:00,
2013-03-31 13:01:00,69.1,58.1,29.98,North,5,1.0,1.0,68,0.00,,,0.01,Wunderground v.1.15,2013-03-31 18:01:00,
2013-03-31 13:10:00,69.6,58.2,29.98,North,351,1.0,1.0,67,0.00,,,0.01,Wunderground v.1.15,2013-03-31 18:10:00,
2013-03-31 13:20:00,70.2,58.3,29.98,NNW,344,1.0,2.0,66,0.00,,,0.01,Wunderground v.1.15,2013-03-31 18:20:00,
2013-03-31 13:30:00,70.3,58.4,29.98,SE,136,1.0,1.0,66,0.00,,,0.01,Wunderground v.1.15,2013-03-31 18:30:00,
2013-03-31 13:40:00,70.7,57.9,29.98,North,350,1.0,2.0,64,0.00,,,0.01,Wunderground v.1.15,2013-03-31 18:40:00,
2013-03-31 13:50:00,71.3,57.6,29.97,East,80,1.0,1.0,62,0.00,,,0.01,Wunderground v.1.15,2013-03-31 18:50:00,
2013-03-31 13:55:00,71.8,58.5,29.97,East,97,1.0,1.0,63,0.00,,,0.01,Wunderground v.1.15,2013-03-31 18:55:00,
2013-03-31 14:00:00,72.4,57.7,29.97,ESE,105,0.0,0.0,60,0.00,,,0.01,Wunderground v.1.15,2013-03-31 19:00:00,
2013-03-31 14:10:00,72.6,57.9,29.97,NE,37,1.0,1.0,60,0.00,,,0.01,Wunderground v.1.15,2013-03-31 19:10:00,
2013-03-31 14:20:00,73.2,58.0,29.97,North,355,1.0,1.0,59,0.00,,,0.01,Wunderground v.1.15,2013-03-31 19:20:00,
2013-03-31 14:30:00,73.1,57.9,29.97,ENE,57,1.0,1.0,59,0.00,,,0.01,Wunderground v.1.15,2013-03-31 19:30:00,
2013-03-31 14:35:00,72.9,57.7,29.97,North,355,1.0,1.0,59,0.00,,,0.01,Wunderground v.1.15,2013-03-31 19:35:00,
2013-03-31 14:45:00,72.9,57.7,29.97,North,350,1.0,5.0,59,0.00,,,0.01,Wunderground v.1.15,2013-03-31 19:45:00,
2013-03-31 14:55:00,73.2,58.0,29.97,North,5,1.0,2.0,59,0.00,,,0.01,Wunderground v.1.15,2013-03-31 19:55:00,
2013-03-31 15:00:00,73.5,58.3,29.97,WNW,293,1.0,1.0,59,0.00,,,0.01,Wunderground v.1.15,2013-03-31 20:00:00,
2013-03-31 15:10:00,73.9,58.2,29.97,WNW,287,1.0,1.0,58,0.00,,,0.01,Wunderground v.1.15,2013-03-31 20:10:00,
2013-03-31 15:15:00,73.8,58.6,29.96,NW,325,1.0,1.0,59,0.00,,,0.01,Wunderground v.1.15,2013-03-31 20:15:00,
2013-03-31 15:25:00,74.8,58.1,29.95,West,273,1.0,2.0,56,0.00,,,0.01,Wunderground v.1.15,2013-03-31 20:25:00,
2013-03-31 15:35:00,75.1,56.8,29.95,NNW,336,2.0,2.0,53,0.00,,,0.01,Wunderground v.1.15,2013-03-31 20:35:00,
2013-03-31 15:45:00,75.1,56.3,29.95,NNE,15,1.0,5.0,52,0.00,,,0.01,Wunderground v.1.15,2013-03-31 20:45:00,
2013-03-31 15:55:00,75.2,56.4,29.94,ESE,106,1.0,1.0,52,0.00,,,0.01,Wunderground v.1.15,2013-03-31 20:55:00,
2013-03-31 16:00:00,75.3,56.5,29.94,North,5,1.0,4.0,52,0.00,,,0.01,Wunderground v.1.15,2013-03-31 21:00:00,
2013-03-31 16:10:00,75.6,56.2,29.94,North,355,1.0,1.0,51,0.00,,,0.01,Wunderground v.1.15,2013-03-31 21:10:00,
2013-03-31 16:15:00,75.8,55.8,29.94,East,87,1.0,1.0,50,0.00,,,0.01,Wunderground v.1.15,2013-03-31 21:15:00,
2013-03-31 16:25:00,75.7,55.7,29.94,ENE,69,1.0,2.0,50,0.00,,,0.01,Wunderground v.1.15,2013-03-31 21:25:00,
2013-03-31 16:35:00,75.3,56.5,29.93,NNE,24,1.0,1.0,52,0.00,,,0.01,Wunderground v.1.15,2013-03-31 21:35:00,
2013-03-31 16:45:00,75.1,56.3,29.93,North,360,2.0,6.0,52,0.00,,,0.01,Wunderground v.1.15,2013-03-31 21:45:00,
2013-03-31 16:50:00,74.7,56.4,29.93,NNE,19,2.0,5.0,53,0.00,,,0.01,Wunderground v.1.15,2013-03-31 21:50:00,
2013-03-31 17:00:00,74.8,57.0,29.93,North,5,1.0,1.0,54,0.00,,,0.01,Wunderground v.1.15,2013-03-31 22:00:00,
2013-03-31 17:10:00,74.8,56.0,29.92,North,351,1.0,1.0,52,0.00,,,0.01,Wunderground v.1.15,2013-03-31 22:10:00,
2013-03-31 17:15:00,74.6,55.8,29.92,NW,309,1.0,3.0,52,0.00,,,0.01,Wunderground v.1.15,2013-03-31 22:15:00,
2013-03-31 17:25:00,74.8,55.5,29.92,North,9,1.0,1.0,51,0.00,,,0.01,Wunderground v.1.15,2013-03-31 22:25:00,
2013-03-31 17:35:00,74.9,55.6,29.92,NNE,14,1.0,4.0,51,0.00,,,0.01,Wunderground v.1.15,2013-03-31 22:35:00,
2013-03-31 17:40:00,74.6,55.3,29.92,NNW,347,1.0,1.0,51,0.00,,,0.01,Wunderground v.1.15,2013-03-31 22:40:00,
2013-03-31 17:50:00,74.3,55.0,29.92,NNW,338,1.0,1.0,51,0.00,,,0.01,Wunderground v.1.15,2013-03-31 22:50:00,
2013-03-31 17:55:00,74.3,55.0,29.92,NNW,341,0.0,1.0,51,0.00,,,0.01,Wunderground v.1.15,2013-03-31 22:55:00,
2013-03-31 18:00:00,74.3,55.0,29.92,NNW,327,1.0,1.0,51,0.00,,,0.01,Wunderground v.1.15,2013-03-31 23:00:00,
2013-03-31 18:10:00,74.1,54.8,29.92,NW,311,0.0,2.0,51,0.00,,,0.01,Wunderground v.1.15,2013-03-31 23:10:00,
2013-03-31 18:15:00,73.9,54.6,29.92,WNW,302,1.0,2.0,51,0.00,,,0.01,Wunderground v.1.15,2013-03-31 23:15:00,
2013-03-31 18:25:00,73.5,54.3,29.92,NNE,19,0.0,0.0,51,0.00,,,0.01,Wunderground v.1.15,2013-03-31 23:25:00,
2013-03-31 18:35:00,73.2,53.4,29.92,North,9,1.0,1.0,50,0.00,,,0.01,Wunderground v.1.15,2013-03-31 23:35:00,
2013-03-31 18:45:00,73.0,53.3,29.92,NW,306,0.0,1.0,50,0.00,,,0.01,Wunderground v.1.15,2013-03-31 23:45:00,
2013-03-31 18:55:00,72.7,52.4,29.93,North,11,0.0,2.0,49,0.00,,,0.01,Wunderground v.1.15,2013-03-31 23:55:00,
2013-03-31 19:00:00,72.5,51.1,29.93,North,11,0.0,0.0,47,0.00,,,0.01,Wunderground v.1.15,2013-04-01 00:00:00,
2013-03-31 19:10:00,72.2,50.8,29.93,North,11,0.0,0.0,47,0.00,,,0.01,Wunderground v.1.15,2013-04-01 00:10:00,
2013-03-31 19:15:00,72.0,50.1,29.93,North,11,0.0,0.0,46,0.00,,,0.01,Wunderground v.1.15,2013-04-01 00:15:00,
2013-03-31 19:25:00,71.7,51.5,29.93,North,11,0.0,0.0,49,0.00,,,0.01,Wunderground v.1.15,2013-04-01 00:25:00,
2013-03-31 19:35:00,71.3,52.2,29.93,North,11,0.0,0.0,51,0.00,,,0.01,Wunderground v.1.15,2013-04-01 00:35:00,
2013-03-31 19:45:00,70.9,52.4,29.93,North,11,0.0,0.0,52,0.00,,,0.01,Wunderground v.1.15,2013-04-01 00:45:00,
2013-03-31 19:50:00,70.7,52.7,29.94,North,11,0.0,0.0,53,0.00,,,0.01,Wunderground v.1.15,2013-04-01 00:50:00,
2013-03-31 20:00:00,70.3,53.4,29.94,North,11,0.0,0.0,55,0.00,,,0.01,Wunderground v.1.15,2013-04-01 01:00:00,
2013-03-31 20:10:00,69.9,53.5,29.95,North,11,0.0,0.0,56,0.00,,,0.01,Wunderground v.1.15,2013-04-01 01:10:00,
2013-03-31 20:15:00,69.7,53.8,29.95,North,11,0.0,0.0,57,0.00,,,0.01,Wunderground v.1.15,2013-04-01 01:15:00,
2013-03-31 20:25:00,69.2,53.3,29.95,North,11,0.0,0.0,57,0.00,,,0.01,Wunderground v.1.15,2013-04-01 01:25:00,
2013-03-31 20:30:00,69.0,53.6,29.95,North,11,0.0,0.0,58,0.00,,,0.01,Wunderground v.1.15,2013-04-01 01:30:00,
2013-03-31 20:40:00,68.5,53.6,29.95,North,11,0.0,0.0,59,0.00,,,0.01,Wunderground v.1.15,2013-04-01 01:40:00,
2013-03-31 20:50:00,67.9,54.0,29.95,North,11,0.0,0.0,61,0.00,,,0.01,Wunderground v.1.15,2013-04-01 01:50:00,
2013-03-31 21:00:00,67.2,53.7,29.95,North,11,0.0,0.0,62,0.00,,,0.01,Wunderground v.1.15,2013-04-01 02:00:00,
2013-03-31 21:10:00,66.7,54.1,29.95,North,11,0.0,0.0,64,0.00,,,0.01,Wunderground v.1.15,2013-04-01 02:10:00,
2013-03-31 21:20:00,66.2,53.7,29.96,North,11,0.0,0.0,64,0.00,,,0.01,Wunderground v.1.15,2013-04-01 02:20:00,
2013-03-31 21:30:00,65.9,53.4,29.96,North,11,0.0,0.0,64,0.00,,,0.01,Wunderground v.1.15,2013-04-01 02:30:00,
2013-03-31 21:40:00,65.4,53.7,29.96,North,11,0.0,0.0,66,0.00,,,0.01,Wunderground v.1.15,2013-04-01 02:40:00,
2013-03-31 21:50:00,64.8,53.6,29.97,North,11,0.0,0.0,67,0.00,,,0.01,Wunderground v.1.15,2013-04-01 02:50:00,
2013-03-31 22:00:00,64.2,53.8,29.97,North,11,0.0,0.0,69,0.00,,,0.01,Wunderground v.1.15,2013-04-01 03:00:00,
2013-03-31 22:10:00,63.8,53.8,29.97,North,11,0.0,0.0,70,0.00,,,0.01,Wunderground v.1.15,2013-04-01 03:10:00,
2013-03-31 22:20:00,63.4,53.4,29.97,North,11,0.0,0.0,70,0.00,,,0.01,Wunderground v.1.15,2013-04-01 03:20:00,
2013-03-31 22:30:00,62.9,53.4,29.97,North,11,0.0,0.0,71,0.00,,,0.01,Wunderground v.1.15,2013-04-01 03:30:00,
2013-03-31 22:40:00,62.5,53.0,29.98,North,11,0.0,0.0,71,0.00,,,0.01,Wunderground v.1.15,2013-04-01 03:40:00,
2013-03-31 22:50:00,62.3,53.2,29.98,North,11,0.0,0.0,72,0.00,,,0.01,Wunderground v.1.15,2013-04-01 03:50:00,
2013-03-31 23:01:00,62.0,53.2,29.98,North,11,0.0,0.0,73,0.00,,,0.01,Wunderground v.1.15,2013-04-01 04:01:00,
2013-03-31 23:05:00,61.8,53.1,29.98,North,11,0.0,0.0,73,0.00,,,0.01,Wunderground v.1.15,2013-04-01 04:05:00,
2013-03-31 23:10:00,61.6,53.2,29.98,North,11,0.0,0.0,74,0.00,,,0.01,Wunderground v.1.15,2013-04-01 04:10:00,
2013-03-31 23:20:00,61.2,52.8,29.98,North,11,0.0,0.0,74,0.00,,,0.01,Wunderground v.1.15,2013-04-01 04:20:00,
2013-03-31 23:25:00,60.9,52.9,29.98,North,11,0.0,0.0,75,0.00,,,0.01,Wunderground v.1.15,2013-04-01 04:25:00,
2013-03-31 23:30:00,60.8,52.8,29.99,North,11,0.0,0.0,75,0.00,,,0.01,Wunderground v.1.15,2013-04-01 04:30:00,
2013-03-31 23:40:00,60.6,52.6,29.99,North,11,0.0,0.0,75,0.00,,,0.01,Wunderground v.1.15,2013-04-01 04:40:00,
2013-03-31 23:50:00,60.3,52.7,29.99,North,11,0.0,0.0,76,0.00,,,0.01,Wunderground v.1.15,2013-04-01 04:50:00,
2013-03-31 23:55:00,60.2,52.6,29.99,North,11,0.0,0.0,76,0.00,,,0.01,Wunderground v.1.15,2013-04-01 04:55:00,